Time;durP1;ratioP1;P1;durP2;ratioP2;P2;SDS_P1;SDS_P2;PMS_P1;PMS_P2;Temp;Humidity;BMP_temperature;BMP_pressure;BME280_temperature;BME280_humidity;BME280_pressure;Samples;Min_cycle;Max_cycle;Signal;HPM_P1;HPM_P2
2022/04/11 00:02:04;;;;;;;10.82;4.13;;;;;;;;;;4959801;28;20085;-68
2022/04/11 00:04:34;;;;;;;8.93;4.57;;;;;;;;;;4991369;28;20406;-69
2022/04/11 00:07:05;;;;;;;8.25;4.45;;;;;;;;;;4943228;28;20054;-69
2022/04/11 00:09:36;;;;;;;8.10;4.00;;;;;;;;;;5022656;28;20064;-69
2022/04/11 00:12:06;;;;;;;14.10;4.13;;;;;;;;;;5050397;28;20531;-68
2022/04/11 00:14:37;;;;;;;7.85;4.25;;;;;;;;;;5050196;28;20052;-69
2022/04/11 00:17:08;;;;;;;9.32;4.63;;;;;;;;;;5050402;28;20061;-68
2022/04/11 00:19:39;;;;;;;10.50;4.85;;;;;;;;;;5064124;28;20075;-68
2022/04/11 00:22:09;;;;;;;11.75;5.40;;;;;;;;;;5070366;28;20048;-69
2022/04/11 00:24:39;;;;;;;13.13;5.53;;;;;;;;;;5070252;28;20147;-69
2022/04/11 00:27:10;;;;;;;11.88;5.28;;;;;;;;;;5070162;28;20048;-69
2022/04/11 00:29:41;;;;;;;8.02;4.40;;;;;;;;;;5020755;28;20045;-69
2022/04/11 00:32:11;;;;;;;9.15;4.68;;;;;;;;;;5029960;28;20065;-69
2022/04/11 00:34:42;;;;;;;13.23;4.97;;;;;;;;;;5014115;28;20053;-69
2022/04/11 00:37:12;;;;;;;10.07;5.30;;;;;;;;;;5030058;28;20065;-69
2022/04/11 00:39:43;;;;;;;10.10;4.68;;;;;;;;;;5045985;28;20038;-68
2022/04/11 00:42:15;;;;;;;10.23;4.70;;;;;;;;;;5030165;28;20045;-68
2022/04/11 00:44:45;;;;;;;10.50;4.28;;;;;;;;;;5030000;28;20045;-68
2022/04/11 00:47:15;;;;;;;8.85;4.22;;;;;;;;;;4993095;28;20163;-69
2022/04/11 00:49:47;;;;;;;8.93;4.68;;;;;;;;;;5010002;28;20515;-68
2022/04/11 00:52:20;;;;;;;12.50;4.50;;;;;;;;;;5009780;28;20058;-68
2022/04/11 00:54:51;;;;;;;9.75;4.65;;;;;;;;;;5009918;28;20050;-69
2022/04/11 00:57:23;;;;;;;10.02;5.40;;;;;;;;;;5009866;28;20058;-69
2022/04/11 00:59:54;;;;;;;25.60;11.77;;;;;;;;;;5010112;28;20119;-71
2022/04/11 01:02:25;;;;;;;20.95;10.30;;;;;;;;;;4977271;28;20072;-69
2022/04/11 01:04:56;;;;;;;18.02;8.23;;;;;;;;;;5009799;28;20271;-69
2022/04/11 01:07:26;;;;;;;12.18;6.60;;;;;;;;;;5048117;28;20075;-69
2022/04/11 01:09:57;;;;;;;11.20;5.75;;;;;;;;;;4993408;28;20057;-69
2022/04/11 01:12:28;;;;;;;10.13;4.82;;;;;;;;;;4976280;28;20656;-69
2022/04/11 01:14:59;;;;;;;9.45;4.80;;;;;;;;;;4957238;28;20054;-68
2022/04/11 01:17:37;;;;;;;10.55;4.95;;;;;;;;;;4973724;28;20054;-68
2022/04/11 01:20:12;;;;;;;10.35;4.35;;;;;;;;;;4950939;28;20051;-69
2022/04/11 01:22:44;;;;;;;13.13;4.80;;;;;;;;;;4932095;29;20047;-69
2022/04/11 01:25:17;;;;;;;10.77;4.63;;;;;;;;;;4956629;28;20522;-69
2022/04/11 01:27:49;;;;;;;8.95;4.75;;;;;;;;;;4954672;28;20439;-70
2022/04/11 01:30:19;;;;;;;11.60;5.07;;;;;;;;;;4970570;28;20432;-69
2022/04/11 01:32:50;;;;;;;10.00;4.95;;;;;;;;;;4950821;29;20058;-69
2022/04/11 01:35:26;;;;;;;8.20;4.70;;;;;;;;;;4884608;29;20427;-70
2022/04/11 01:38:03;;;;;;;8.18;4.63;;;;;;;;;;4912709;29;20508;-68
2022/04/11 01:40:34;;;;;;;8.20;4.32;;;;;;;;;;4875042;29;20061;-68
2022/04/11 01:43:04;;;;;;;7.93;4.60;;;;;;;;;;4856669;29;20473;-68
2022/04/11 01:45:35;;;;;;;10.75;4.60;;;;;;;;;;4837726;29;20053;-69
2022/04/11 01:48:06;;;;;;;12.05;5.20;;;;;;;;;;4850913;29;20062;-69
2022/04/11 01:50:37;;;;;;;9.23;4.93;;;;;;;;;;4837805;29;20057;-68
2022/04/11 01:53:10;;;;;;;13.52;5.05;;;;;;;;;;4837824;29;20068;-68
2022/04/11 01:55:42;;;;;;;13.00;5.50;;;;;;;;;;4856287;29;20077;-69
2022/04/11 01:58:14;;;;;;;12.23;5.05;;;;;;;;;;4844817;29;20539;-68
2022/04/11 02:00:44;;;;;;;10.30;5.43;;;;;;;;;;4841760;29;20443;-68
2022/04/11 02:03:15;;;;;;;10.48;6.53;;;;;;;;;;4842295;29;20065;-68
2022/04/11 02:05:46;;;;;;;16.77;7.10;;;;;;;;;;4822163;29;20064;-70
2022/04/11 02:08:16;;;;;;;12.32;6.28;;;;;;;;;;4861571;29;20052;-69
2022/04/11 02:10:48;;;;;;;13.27;6.65;;;;;;;;;;4874549;29;20049;-68
2022/04/11 02:13:19;;;;;;;12.90;6.40;;;;;;;;;;4878145;29;20112;-69
2022/04/11 02:15:50;;;;;;;14.75;6.90;;;;;;;;;;4878251;29;20057;-69
2022/04/11 02:18:21;;;;;;;13.80;6.95;;;;;;;;;;4896616;29;20056;-69
2022/04/11 02:20:51;;;;;;;11.02;6.60;;;;;;;;;;4901850;29;20447;-69
2022/04/11 02:23:23;;;;;;;15.70;7.78;;;;;;;;;;4859903;29;20065;-69
2022/04/11 02:25:53;;;;;;;16.20;7.07;;;;;;;;;;4896815;29;20053;-68
2022/04/11 02:28:43;;;;;;;14.25;6.68;;;;;;;;;;4878534;29;20541;-68
2022/04/11 02:31:15;;;;;;;15.48;7.47;;;;;;;;;;4896711;29;20540;-68
2022/04/11 02:33:46;;;;;;;12.77;6.47;;;;;;;;;;4872968;29;20065;-68
2022/04/11 02:36:16;;;;;;;11.25;5.72;;;;;;;;;;4859738;29;20062;-69
2022/04/11 02:38:46;;;;;;;12.75;6.43;;;;;;;;;;4865554;29;20073;-68
2022/04/11 02:41:18;;;;;;;14.02;7.03;;;;;;;;;;4844296;29;20065;-69
2022/04/11 02:43:51;;;;;;;20.23;7.07;;;;;;;;;;4859809;29;20064;-68
2022/04/11 02:46:24;;;;;;;13.63;6.63;;;;;;;;;;4922694;29;20058;-68
2022/04/11 02:48:55;;;;;;;13.32;5.72;;;;;;;;;;4893403;29;20394;-69
2022/04/11 02:51:30;;;;;;;11.80;5.68;;;;;;;;;;4910352;29;20064;-69
2022/04/11 02:54:09;;;;;;;12.80;4.82;;;;;;;;;;4920276;29;20052;-68
2022/04/11 02:56:43;;;;;;;8.65;4.18;;;;;;;;;;4926585;29;20053;-69
2022/04/11 02:59:14;;;;;;;11.10;4.70;;;;;;;;;;4877871;29;20615;-69
2022/04/11 03:01:53;;;;;;;11.48;4.93;;;;;;;;;;4925097;29;20064;-69
2022/04/11 03:04:26;;;;;;;8.98;4.35;;;;;;;;;;4950546;29;20055;-69
2022/04/11 03:07:12;;;;;;;8.80;3.70;;;;;;;;;;4974717;28;20050;-69
2022/04/11 03:09:43;;;;;;;9.32;4.07;;;;;;;;;;4937222;29;20052;-68
2022/04/11 03:12:14;;;;;;;8.82;4.25;;;;;;;;;;4934343;29;20048;-68
2022/04/11 03:14:48;;;;;;;13.27;4.32;;;;;;;;;;4902831;29;20059;-69
2022/04/11 03:17:19;;;;;;;9.25;3.80;;;;;;;;;;4897691;29;20049;-69
2022/04/11 03:19:50;;;;;;;7.45;3.75;;;;;;;;;;4911189;29;20097;-67
2022/04/11 03:22:21;;;;;;;6.55;3.15;;;;;;;;;;4880300;29;20061;-69
2022/04/11 03:24:57;;;;;;;5.63;2.50;;;;;;;;;;4904222;29;20053;-69
2022/04/11 03:27:29;;;;;;;10.50;4.43;;;;;;;;;;4895890;29;20056;-68
2022/04/11 03:30:00;;;;;;;6.50;3.40;;;;;;;;;;4876984;29;20072;-69
2022/04/11 03:32:32;;;;;;;8.73;3.97;;;;;;;;;;4862441;29;20065;-68
2022/04/11 03:35:07;;;;;;;8.10;3.45;;;;;;;;;;4858735;29;20076;-69
2022/04/11 03:37:39;;;;;;;7.07;3.78;;;;;;;;;;4881212;29;20048;-68
2022/04/11 03:40:17;;;;;;;9.50;3.65;;;;;;;;;;4910168;29;20067;-69
2022/04/11 03:42:48;;;;;;;8.43;2.92;;;;;;;;;;4883749;29;20053;-71
2022/04/11 03:45:19;;;;;;;6.00;3.22;;;;;;;;;;4895884;29;20063;-69
2022/04/11 03:47:51;;;;;;;6.82;3.20;;;;;;;;;;4895975;29;20059;-72
2022/04/11 03:50:25;;;;;;;6.93;3.17;;;;;;;;;;4914458;29;20067;-67
2022/04/11 03:52:56;;;;;;;6.50;2.83;;;;;;;;;;4933053;29;20051;-68
2022/04/11 03:55:27;;;;;;;8.32;3.75;;;;;;;;;;4933566;29;20056;-69
2022/04/11 03:57:58;;;;;;;9.52;3.88;;;;;;;;;;4920422;29;20072;-69
2022/04/11 04:00:31;;;;;;;9.35;3.72;;;;;;;;;;4933406;29;20059;-68
2022/04/11 04:03:18;;;;;;;12.63;4.05;;;;;;;;;;4947862;29;20058;-69
2022/04/11 04:06:03;;;;;;;8.35;3.60;;;;;;;;;;4952352;28;20078;-69
2022/04/11 04:08:38;;;;;;;7.07;3.83;;;;;;;;;;4952463;29;20059;-69
2022/04/11 04:11:20;;;;;;;8.57;4.30;;;;;;;;;;4971166;28;20059;-69
2022/04/11 04:14:07;;;;;;;6.15;3.42;;;;;;;;;;4971720;28;20117;-69
2022/04/11 04:16:43;;;;;;;9.18;3.92;;;;;;;;;;4933321;29;20451;-69
2022/04/11 04:19:16;;;;;;;10.93;4.10;;;;;;;;;;4981907;28;20601;-68
2022/04/11 04:21:47;;;;;;;9.45;3.95;;;;;;;;;;4932179;29;20062;-69
2022/04/11 04:24:22;;;;;;;;;;;;;;;;;;4917674;29;20051;-69
2022/04/11 04:26:57;;;;;;;8.13;3.28;;;;;;;;;;4947961;29;20033;-68
2022/04/11 04:29:29;;;;;;;10.15;3.85;;;;;;;;;;4931127;29;20060;-70
2022/04/11 04:31:59;;;;;;;7.35;3.97;;;;;;;;;;4894834;29;20053;-68
2022/04/11 04:34:31;;;;;;;13.02;4.03;;;;;;;;;;4951845;28;20488;-70
2022/04/11 04:37:03;;;;;;;6.82;3.40;;;;;;;;;;4958884;28;20055;-66
2022/04/11 04:39:33;;;;;;;7.22;4.38;;;;;;;;;;4951865;29;20407;-68
2022/04/11 04:42:04;;;;;;;10.40;4.55;;;;;;;;;;4957722;28;20511;-71
2022/04/11 04:44:42;;;;;;;8.45;4.07;;;;;;;;;;4990536;28;20057;-72
2022/04/11 04:47:16;;;;;;;10.05;3.92;;;;;;;;;;4986174;28;20054;-72
2022/04/11 04:49:47;;;;;;;10.02;4.00;;;;;;;;;;5006087;28;20054;-71
2022/04/11 04:52:19;;;;;;;;;;;;;;;;;;4990162;28;20656;-71
2022/04/11 04:55:03;;;;;;;7.93;3.92;;;;;;;;;;5009727;28;20038;-69
2022/04/11 04:57:34;;;;;;;7.47;3.78;;;;;;;;;;4994862;28;20058;-73
2022/04/11 05:00:07;;;;;;;;;;;;;;;;;;4957493;28;20048;-70
2022/04/11 05:02:43;;;;;;;8.75;3.72;;;;;;;;;;4935942;29;20294;-72
2022/04/11 05:05:18;;;;;;;8.52;3.65;;;;;;;;;;4932073;29;20474;-73
2022/04/11 05:07:50;;;;;;;;;;;;;;;;;;4903157;29;20044;-72
2022/04/11 05:10:24;;;;;;;7.97;3.90;;;;;;;;;;4931915;29;19923;-72
2022/04/11 05:12:55;;;;;;;7.55;4.35;;;;;;;;;;4902154;29;20517;-72
2022/04/11 05:15:26;;;;;;;13.55;4.72;;;;;;;;;;4928462;29;20052;-72
2022/04/11 05:18:05;;;;;;;11.27;4.30;;;;;;;;;;4931415;29;20052;-71
2022/04/11 05:20:38;;;;;;;11.23;4.05;;;;;;;;;;4934860;28;20058;-72
2022/04/11 05:23:10;;;;;;;8.30;3.97;;;;;;;;;;4913827;28;20072;-71
2022/04/11 05:25:43;;;;;;;15.38;3.92;;;;;;;;;;4896843;29;20078;-71
2022/04/11 05:28:15;;;;;;;8.68;3.92;;;;;;;;;;4897159;29;20417;-71
2022/04/11 05:30:51;;;;;;;7.95;4.30;;;;;;;;;;4878050;29;20049;-72
2022/04/11 05:33:23;;;;;;;9.60;3.72;;;;;;;;;;4908053;29;20056;-70
2022/04/11 05:35:56;;;;;;;10.55;3.67;;;;;;;;;;4908856;29;20060;-71
2022/04/11 05:38:28;;;;;;;7.85;3.88;;;;;;;;;;4891908;29;20093;-71
2022/04/11 05:40:58;;;;;;;9.27;4.13;;;;;;;;;;4947434;29;20066;-71
2022/04/11 05:43:35;;;;;;;11.30;4.25;;;;;;;;;;4931485;29;20048;-71
2022/04/11 05:46:06;;;;;;;8.85;3.97;;;;;;;;;;4903579;29;20057;-71
2022/04/11 05:48:40;;;;;;;9.05;4.10;;;;;;;;;;4885137;29;20498;-70
2022/04/11 05:51:11;;;;;;;7.82;4.32;;;;;;;;;;4896951;29;20101;-69
2022/04/11 05:53:42;;;;;;;7.30;3.92;;;;;;;;;;4884368;29;20057;-68
2022/04/11 05:56:12;;;;;;;10.70;4.60;;;;;;;;;;4854573;29;20053;-68
2022/04/11 05:58:43;;;;;;;11.55;4.75;;;;;;;;;;4853018;29;20050;-70
2022/04/11 06:01:14;;;;;;;8.75;4.93;;;;;;;;;;4838051;29;20403;-71
2022/04/11 06:03:44;;;;;;;9.68;4.55;;;;;;;;;;4879961;29;20063;-68
2022/04/11 06:06:18;;;;;;;8.50;4.18;;;;;;;;;;4862426;29;20048;-68
2022/04/11 06:08:49;;;;;;;7.88;4.03;;;;;;;;;;4924050;29;20061;-68
2022/04/11 06:11:20;;;;;;;7.15;3.80;;;;;;;;;;4920244;29;20539;-67
2022/04/11 06:13:53;;;;;;;10.63;4.55;;;;;;;;;;4938294;28;20169;-68
2022/04/11 06:16:23;;;;;;;13.10;4.20;;;;;;;;;;4931348;29;20060;-69
2022/04/11 06:18:55;;;;;;;6.45;3.85;;;;;;;;;;4947155;28;20048;-68
2022/04/11 06:21:25;;;;;;;12.13;4.50;;;;;;;;;;4931173;29;20090;-68
2022/04/11 06:23:57;;;;;;;16.00;4.32;;;;;;;;;;4892841;29;20394;-68
2022/04/11 06:26:28;;;;;;;9.07;4.13;;;;;;;;;;4909908;29;20052;-69
2022/04/11 06:28:59;;;;;;;13.55;4.47;;;;;;;;;;4888274;29;20067;-69
2022/04/11 06:31:30;;;;;;;10.18;4.07;;;;;;;;;;4911859;29;20052;-69
2022/04/11 06:34:07;;;;;;;9.07;4.30;;;;;;;;;;4942341;28;20554;-69
2022/04/11 06:36:38;;;;;;;8.43;4.03;;;;;;;;;;4965903;28;20047;-69
2022/04/11 06:39:08;;;;;;;10.50;4.05;;;;;;;;;;4969360;28;20432;-69
2022/04/11 06:41:46;;;;;;;10.10;4.45;;;;;;;;;;4959320;28;20091;-68
2022/04/11 06:44:16;;;;;;;9.77;4.32;;;;;;;;;;4926355;28;20049;-68
2022/04/11 06:46:56;;;;;;;13.57;4.90;;;;;;;;;;4889319;29;20057;-69
2022/04/11 06:49:28;;;;;;;9.35;4.50;;;;;;;;;;4911781;29;20048;-68
2022/04/11 06:51:59;;;;;;;;;;;;;;;;;;4921834;29;20558;-68
2022/04/11 06:54:30;;;;;;;9.77;4.28;;;;;;;;;;4915482;29;19923;-68
2022/04/11 06:57:01;;;;;;;10.27;4.47;;;;;;;;;;4915412;29;20060;-69
2022/04/11 06:59:32;;;;;;;8.82;4.25;;;;;;;;;;4884379;29;20063;-68
2022/04/11 07:02:02;;;;;;;11.27;4.00;;;;;;;;;;4933973;29;20063;-69
2022/04/11 07:04:33;;;;;;;8.10;4.18;;;;;;;;;;4887456;29;20064;-68
2022/04/11 07:07:04;;;;;;;8.73;4.22;;;;;;;;;;4934327;29;20428;-67
2022/04/11 07:09:38;;;;;;;10.80;3.97;;;;;;;;;;4921627;29;20064;-67
2022/04/11 07:12:09;;;;;;;8.73;3.75;;;;;;;;;;4891220;29;20065;-67
2022/04/11 07:14:39;;;;;;;5.90;3.60;;;;;;;;;;4875658;29;20431;-68
2022/04/11 07:17:10;;;;;;;7.38;3.63;;;;;;;;;;4867571;29;20070;-68
2022/04/11 07:19:41;;;;;;;10.07;3.80;;;;;;;;;;4890854;29;20069;-69
2022/04/11 07:22:11;;;;;;;7.32;3.90;;;;;;;;;;4942733;28;20082;-68
2022/04/11 07:24:42;;;;;;;7.88;4.20;;;;;;;;;;4957295;28;20050;-69
2022/04/11 07:27:12;;;;;;;8.00;3.92;;;;;;;;;;4993388;28;20057;-69
2022/04/11 07:29:43;;;;;;;8.57;3.70;;;;;;;;;;4992828;28;20046;-68
2022/04/11 07:32:13;;;;;;;6.43;3.60;;;;;;;;;;5011523;28;20061;-68
2022/04/11 07:34:44;;;;;;;7.30;4.13;;;;;;;;;;5011621;28;20069;-70
2022/04/11 07:37:14;;;;;;;7.75;4.07;;;;;;;;;;5011405;28;20101;-69
2022/04/11 07:39:45;;;;;;;8.38;3.72;;;;;;;;;;4978654;28;20050;-67
2022/04/11 07:42:15;;;;;;;8.15;4.07;;;;;;;;;;5011308;28;20069;-68
2022/04/11 07:44:46;;;;;;;7.50;4.10;;;;;;;;;;4995158;28;20399;-68
2022/04/11 07:47:16;;;;;;;7.47;3.70;;;;;;;;;;5011244;28;20065;-68
2022/04/11 07:49:47;;;;;;;8.35;3.85;;;;;;;;;;5044349;28;20058;-69
2022/04/11 07:52:18;;;;;;;9.32;3.45;;;;;;;;;;5011233;28;20057;-68
2022/04/11 07:54:48;;;;;;;7.30;3.72;;;;;;;;;;4991232;28;20058;-69
2022/04/11 07:57:19;;;;;;;7.78;3.90;;;;;;;;;;4990485;28;20054;-68
2022/04/11 08:00:10;;;;;;;6.47;3.78;;;;;;;;;;4991648;28;20061;-68
2022/04/11 08:02:41;;;;;;;8.05;3.97;;;;;;;;;;4991475;28;20526;-68
2022/04/11 08:05:12;;;;;;;8.18;3.85;;;;;;;;;;4991309;28;20078;-69
2022/04/11 08:07:43;;;;;;;8.80;4.22;;;;;;;;;;5003562;28;20518;-67
2022/04/11 08:10:16;;;;;;;7.65;3.85;;;;;;;;;;5011087;28;20650;-67
2022/04/11 08:12:53;;;;;;;9.82;3.78;;;;;;;;;;5010780;28;20061;-67
2022/04/11 08:15:25;;;;;;;12.20;3.72;;;;;;;;;;5010929;28;20414;-67
2022/04/11 08:17:57;;;;;;;7.45;4.22;;;;;;;;;;4990797;28;20053;-69
2022/04/11 08:20:29;;;;;;;8.05;3.78;;;;;;;;;;4985620;28;20175;-68
2022/04/11 08:22:59;;;;;;;7.30;3.58;;;;;;;;;;4991166;28;20050;-67
2022/04/11 08:25:30;;;;;;;7.22;3.65;;;;;;;;;;4958606;28;20513;-70
2022/04/11 08:28:00;;;;;;;6.80;3.20;;;;;;;;;;4991105;28;20054;-73
2022/04/11 08:30:31;;;;;;;10.45;4.03;;;;;;;;;;4991109;28;20538;-73
2022/04/11 08:33:01;;;;;;;7.65;3.70;;;;;;;;;;4970743;28;20050;-71
2022/04/11 08:35:32;;;;;;;10.70;4.13;;;;;;;;;;4971611;28;20569;-72
2022/04/11 08:38:03;;;;;;;10.63;3.83;;;;;;;;;;4990484;28;20047;-72
2022/04/11 08:40:34;;;;;;;7.88;3.60;;;;;;;;;;4991170;28;20054;-72
2022/04/11 08:43:05;;;;;;;9.40;3.83;;;;;;;;;;4951666;28;20055;-71
2022/04/11 08:45:40;;;;;;;7.63;4.03;;;;;;;;;;4939855;29;20055;-70
2022/04/11 08:48:12;;;;;;;8.60;3.83;;;;;;;;;;4900856;29;20052;-69
2022/04/11 08:50:43;;;;;;;9.27;3.67;;;;;;;;;;4932659;29;20062;-69
2022/04/11 08:53:14;;;;;;;6.68;3.90;;;;;;;;;;4951605;28;20047;-69
2022/04/11 08:55:44;;;;;;;8.32;3.85;;;;;;;;;;4951807;28;20052;-68
2022/04/11 08:58:15;;;;;;;11.15;4.00;;;;;;;;;;4951797;28;20523;-69
2022/04/11 09:00:46;;;;;;;9.15;3.90;;;;;;;;;;4932187;29;20048;-68
2022/04/11 09:03:17;;;;;;;6.97;3.45;;;;;;;;;;4932584;29;20066;-68
2022/04/11 09:06:03;;;;;;;8.63;3.85;;;;;;;;;;4932667;29;20066;-69
2022/04/11 09:08:54;;;;;;;7.43;4.05;;;;;;;;;;4932259;29;20067;-71
2022/04/11 09:11:29;;;;;;;8.90;3.72;;;;;;;;;;4864083;29;20049;-71
2022/04/11 09:14:01;;;;;;;6.90;3.83;;;;;;;;;;4857278;29;20065;-71
2022/04/11 09:16:49;;;;;;;8.13;4.20;;;;;;;;;;4872726;29;20053;-72
2022/04/11 09:19:20;;;;;;;34.47;5.68;;;;;;;;;;4912645;29;20444;-70
2022/04/11 09:22:11;;;;;;;12.48;4.35;;;;;;;;;;4915533;29;20056;-70
2022/04/11 09:24:43;;;;;;;7.70;3.85;;;;;;;;;;4889836;29;20805;-72
2022/04/11 09:27:24;;;;;;;8.95;4.70;;;;;;;;;;4951324;29;20067;-72
2022/04/11 09:29:55;;;;;;;9.52;4.63;;;;;;;;;;4951373;29;20063;-68
2022/04/11 09:32:26;;;;;;;10.65;4.70;;;;;;;;;;4935776;29;20389;-68
2022/04/11 09:34:56;;;;;;;9.35;4.10;;;;;;;;;;4951157;29;20584;-69
2022/04/11 09:37:27;;;;;;;8.38;4.18;;;;;;;;;;4888681;28;20515;-70
2022/04/11 09:39:57;;;;;;;12.90;4.47;;;;;;;;;;4970461;28;20191;-70
2022/04/11 09:42:32;;;;;;;14.10;4.63;;;;;;;;;;4938118;28;20506;-68
2022/04/11 09:45:03;;;;;;;11.25;4.63;;;;;;;;;;4954899;28;20595;-68
2022/04/11 09:48:05;;;;;;;12.23;4.20;;;;;;;;;;4957331;28;20103;-66
2022/04/11 09:50:36;;;;;;;14.30;5.43;;;;;;;;;;4942594;29;20059;-65
2022/04/11 09:53:12;;;;;;;7.25;4.05;;;;;;;;;;4881491;29;20059;-65
2022/04/11 09:55:45;;;;;;;9.68;4.10;;;;;;;;;;4912919;29;20556;-65
2022/04/11 09:58:17;;;;;;;13.15;5.22;;;;;;;;;;4931809;29;20531;-66
2022/04/11 10:00:49;;;;;;;11.73;4.90;;;;;;;;;;4932046;29;20052;-66
2022/04/11 10:03:24;;;;;;;12.60;6.32;;;;;;;;;;4931828;29;20052;-62
2022/04/11 10:06:03;;;;;;;8.40;3.13;;;;;;;;;;4965171;28;20063;-65
2022/04/11 10:08:34;;;;;;;8.45;4.25;;;;;;;;;;4969016;28;20054;-64
2022/04/11 10:11:06;;;;;;;4.00;1.88;;;;;;;;;;4957338;28;20058;-61
2022/04/11 10:13:38;;;;;;;6.78;2.35;;;;;;;;;;5005492;28;20050;-64
2022/04/11 10:16:08;;;;;;;8.82;2.78;;;;;;;;;;4989551;28;20054;-66
2022/04/11 10:18:39;;;;;;;5.15;1.58;;;;;;;;;;4989238;28;20061;-65
2022/04/11 10:21:13;;;;;;;4.45;0.80;;;;;;;;;;4973813;28;20062;-65
2022/04/11 10:24:08;;;;;;;3.63;1.00;;;;;;;;;;4938178;29;20047;-63
2022/04/11 10:26:55;;;;;;;3.67;1.00;;;;;;;;;;4954566;29;20511;-64
2022/04/11 10:29:37;;;;;;;2.40;0.90;;;;;;;;;;4954590;29;20166;-63
2022/04/11 10:32:15;;;;;;;1.83;0.80;;;;;;;;;;4993410;28;20509;-63
2022/04/11 10:34:56;;;;;;;3.40;1.55;;;;;;;;;;4993408;28;20061;-63
2022/04/11 10:37:48;;;;;;;3.40;1.25;;;;;;;;;;5012485;28;20054;-64
2022/04/11 10:40:19;;;;;;;1.42;0.60;;;;;;;;;;4973554;28;20406;-65
2022/04/11 10:43:04;;;;;;;1.33;0.75;;;;;;;;;;4925796;28;20304;-63
2022/04/11 10:45:38;;;;;;;11.88;2.25;;;;;;;;;;4957832;28;20077;-62
2022/04/11 10:48:11;;;;;;;3.53;0.93;;;;;;;;;;4910089;28;20082;-63
2022/04/11 10:50:45;;;;;;;1.80;0.70;;;;;;;;;;4973217;28;20062;-64
2022/04/11 10:53:24;;;;;;;3.85;0.90;;;;;;;;;;4925427;28;20050;-63
2022/04/11 10:56:07;;;;;;;1.55;0.60;;;;;;;;;;4973022;28;20119;-64
2022/04/11 10:58:49;;;;;;;1.83;0.50;;;;;;;;;;4918588;29;20086;-63
2022/04/11 11:01:56;;;;;;;1.50;0.40;;;;;;;;;;4966013;28;20051;-63
2022/04/11 11:04:30;;;;;;;4.07;0.45;;;;;;;;;;4934751;29;20186;-64
2022/04/11 11:07:23;;;;;;;1.30;0.40;;;;;;;;;;4915891;29;20060;-63
2022/04/11 11:10:00;;;;;;;0.22;0.22;;;;;;;;;;4915611;29;20052;-63
2022/04/11 11:12:31;;;;;;;1.05;0.20;;;;;;;;;;4915748;29;20060;-63
2022/04/11 11:15:25;;;;;;;1.55;0.20;;;;;;;;;;4893139;29;20052;-64
2022/04/11 11:17:58;;;;;;;1.42;0.30;;;;;;;;;;4984181;28;20057;-63
2022/04/11 11:20:32;;;;;;;3.40;0.47;;;;;;;;;;4992170;28;20046;-63
2022/04/11 11:23:17;;;;;;;0.40;0.20;;;;;;;;;;4953359;29;20062;-63
2022/04/11 11:25:52;;;;;;;0.60;0.13;;;;;;;;;;4952947;29;20415;-63
2022/04/11 11:28:28;;;;;;;0.85;0.40;;;;;;;;;;4953280;29;20062;-64
2022/04/11 11:30:59;;;;;;;2.80;0.30;;;;;;;;;;4904523;29;20534;-65
2022/04/11 11:33:30;;;;;;;1.67;0.40;;;;;;;;;;4953461;29;20055;-62
2022/04/11 11:36:02;;;;;;;2.05;0.35;;;;;;;;;;4914849;29;20500;-62
2022/04/11 11:38:33;;;;;;;2.85;0.43;;;;;;;;;;4933658;29;20067;-62
2022/04/11 11:41:04;;;;;;;1.35;0.70;;;;;;;;;;4933980;29;20059;-65
2022/04/11 11:43:36;;;;;;;1.10;0.40;;;;;;;;;;4905191;28;20060;-62
2022/04/11 11:46:08;;;;;;;3.40;0.90;;;;;;;;;;4956433;28;20525;-62
2022/04/11 11:48:41;;;;;;;0.93;0.40;;;;;;;;;;4972525;28;20605;-62
2022/04/11 11:51:12;;;;;;;0.68;0.40;;;;;;;;;;4933585;29;20051;-62
2022/04/11 11:53:50;;;;;;;1.60;0.28;;;;;;;;;;4933921;29;20704;-63
2022/04/11 11:56:21;;;;;;;2.33;0.35;;;;;;;;;;4924110;28;20048;-64
2022/04/11 11:58:52;;;;;;;1.13;0.60;;;;;;;;;;4910137;28;20451;-65
2022/04/11 12:01:28;;;;;;;3.47;1.40;;;;;;;;;;4960333;28;20058;-64
2022/04/11 12:06:54;;;;;;;4.43;2.03;;;;;;;;;;4930834;28;20051;-66
2022/04/11 12:09:36;;;;;;;1.73;0.70;;;;;;;;;;4968875;28;20062;-66
2022/04/11 12:12:11;;;;;;;1.55;0.30;;;;;;;;;;4971829;28;20431;-66
2022/04/11 12:15:11;;;;;;;1.83;0.63;;;;;;;;;;4970368;28;20438;-65
2022/04/11 12:17:47;;;;;;;6.93;4.50;;;;;;;;;;4913017;29;20060;-65
2022/04/11 12:20:22;;;;;;;0.70;0.30;;;;;;;;;;4897049;29;20192;-65
2022/04/11 12:23:11;;;;;;;1.77;0.43;;;;;;;;;;4924511;29;20060;-65
2022/04/11 12:25:44;;;;;;;1.67;1.00;;;;;;;;;;4933396;29;20048;-65
2022/04/11 12:28:22;;;;;;;3.17;1.05;;;;;;;;;;4932968;29;20586;-65
2022/04/11 12:31:14;;;;;;;2.25;1.05;;;;;;;;;;4933039;29;20055;-66
2022/04/11 12:33:49;;;;;;;0.63;0.40;;;;;;;;;;4910399;29;20063;-65
2022/04/11 12:36:22;;;;;;;1.00;0.30;;;;;;;;;;4879565;29;20060;-65
2022/04/11 12:38:58;;;;;;;1.00;0.30;;;;;;;;;;4880506;29;20496;-65
2022/04/11 12:41:44;;;;;;;0.75;0.20;;;;;;;;;;4932323;29;20070;-64
2022/04/11 12:44:16;;;;;;;0.52;0.20;;;;;;;;;;4901418;29;20063;-64
2022/04/11 12:47:01;;;;;;;2.30;0.40;;;;;;;;;;4932633;29;20435;-64
2022/04/11 12:49:57;;;;;;;1.90;0.90;;;;;;;;;;4916452;29;20047;-64
2022/04/11 12:52:29;;;;;;;1.17;0.68;;;;;;;;;;4896748;29;20055;-65
2022/04/11 12:55:01;;;;;;;1.75;0.50;;;;;;;;;;4957435;28;20511;-64
2022/04/11 12:57:34;;;;;;;3.22;0.90;;;;;;;;;;4971215;28;20055;-65
2022/04/11 13:00:20;;;;;;;2.30;1.08;;;;;;;;;;4970959;28;20066;-65
2022/04/11 13:02:55;;;;;;;1.88;1.15;;;;;;;;;;4970960;28;20050;-65
2022/04/11 13:05:27;;;;;;;1.13;0.55;;;;;;;;;;4984007;28;20550;-64
2022/04/11 13:08:01;;;;;;;0.60;0.32;;;;;;;;;;4990671;28;20066;-64
2022/04/11 13:10:32;;;;;;;2.05;0.55;;;;;;;;;;4973992;28;20055;-64
2022/04/11 13:13:03;;;;;;;1.00;0.47;;;;;;;;;;4990319;28;20057;-64
2022/04/11 13:18:23;;;;;;;1.85;0.88;;;;;;;;;;4990118;28;20042;-65
2022/04/11 13:18:24;;;;;;;3.42;0.73;;;;;;;;;;4989379;28;20062;-65
2022/04/11 13:20:55;;;;;;;0.70;0.55;;;;;;;;;;4976753;28;20056;-65
2022/04/11 13:23:26;;;;;;;1.50;0.47;;;;;;;;;;4977187;28;20046;-64
2022/04/11 13:25:59;;;;;;;1.77;0.40;;;;;;;;;;4993495;28;20060;-65
2022/04/11 13:28:30;;;;;;;2.05;0.70;;;;;;;;;;4992499;28;20049;-64
2022/04/11 13:31:01;;;;;;;1.45;0.50;;;;;;;;;;5063705;28;20520;-64
2022/04/11 13:33:32;;;;;;;1.70;0.88;;;;;;;;;;5052919;28;20044;-64
2022/04/11 13:36:02;;;;;;;2.63;1.00;;;;;;;;;;5069013;28;20075;-63
2022/04/11 13:38:33;;;;;;;1.52;0.80;;;;;;;;;;5069117;28;20119;-64
2022/04/11 13:41:05;;;;;;;4.93;2.67;;;;;;;;;;5068995;28;20057;-64
2022/04/11 13:43:37;;;;;;;1.20;0.45;;;;;;;;;;5069343;28;20047;-68
2022/04/11 13:46:11;;;;;;;0.80;0.32;;;;;;;;;;4995938;28;20046;-64
2022/04/11 13:48:41;;;;;;;0.52;0.10;;;;;;;;;;5029098;28;20061;-63
2022/04/11 13:51:13;;;;;;;0.73;0.73;;;;;;;;;;5029423;28;20061;-63
2022/04/11 13:53:44;;;;;;;0.40;0.30;;;;;;;;;;5028330;28;20532;-63
2022/04/11 13:56:14;;;;;;;2.15;0.95;;;;;;;;;;5029329;28;20092;-63
2022/04/11 13:58:45;;;;;;;1.67;0.73;;;;;;;;;;4995999;28;20053;-63
2022/04/11 14:01:17;;;;;;;0.85;0.38;;;;;;;;;;5028781;28;20060;-63
2022/04/11 14:03:48;;;;;;;2.08;0.40;;;;;;;;;;5028907;28;20046;-63
2022/04/11 14:06:19;;;;;;;1.58;0.40;;;;;;;;;;5028820;28;20636;-63
2022/04/11 14:08:49;;;;;;;1.15;0.30;;;;;;;;;;5009047;28;20379;-63
2022/04/11 14:11:20;;;;;;;0.40;0.32;;;;;;;;;;4977641;28;20731;-63
2022/04/11 14:13:53;;;;;;;1.80;0.88;;;;;;;;;;4989411;28;20065;-63
2022/04/11 14:16:27;;;;;;;0.40;0.20;;;;;;;;;;4930805;29;20063;-63
2022/04/11 14:18:58;;;;;;;1.08;0.20;;;;;;;;;;4931489;29;20064;-62
2022/04/11 14:21:30;;;;;;;0.77;0.30;;;;;;;;;;4931586;29;20078;-64
2022/04/11 14:24:01;;;;;;;0.93;0.45;;;;;;;;;;4912422;29;20048;-63
2022/04/11 14:26:31;;;;;;;1.20;0.32;;;;;;;;;;4893040;29;20048;-64
2022/04/11 14:29:02;;;;;;;1.45;0.60;;;;;;;;;;4893787;29;20225;-64
2022/04/11 14:31:33;;;;;;;0.75;0.30;;;;;;;;;;4878175;29;20068;-63
2022/04/11 14:34:04;;;;;;;0.50;0.40;;;;;;;;;;4893940;29;20520;-63
2022/04/11 14:36:34;;;;;;;0.40;0.30;;;;;;;;;;4878077;29;20060;-64
2022/04/11 14:39:15;;;;;;;1.20;0.70;;;;;;;;;;4905811;29;20064;-63
2022/04/11 14:41:45;;;;;;;2.67;0.50;;;;;;;;;;4912413;29;20072;-64
2022/04/11 14:44:16;;;;;;;0.98;0.50;;;;;;;;;;4912377;29;20165;-64
2022/04/11 14:46:46;;;;;;;1.55;0.60;;;;;;;;;;4895970;29;20532;-63
2022/04/11 14:49:17;;;;;;;0.40;0.32;;;;;;;;;;4912581;29;20060;-63
2022/04/11 14:52:08;;;;;;;1.05;0.43;;;;;;;;;;4914429;29;20056;-63
2022/04/11 14:54:39;;;;;;;0.57;0.22;;;;;;;;;;4931307;29;20052;-63
2022/04/11 14:57:10;;;;;;;0.50;0.28;;;;;;;;;;4931423;29;20048;-63
2022/04/11 14:59:40;;;;;;;0.80;0.30;;;;;;;;;;4921115;28;20055;-63
2022/04/11 15:02:15;;;;;;;0.80;0.60;;;;;;;;;;4983456;28;20066;-63
2022/04/11 15:04:46;;;;;;;1.48;0.63;;;;;;;;;;4955409;28;20719;-63
2022/04/11 15:07:17;;;;;;;0.73;0.52;;;;;;;;;;4953979;29;20056;-63
2022/04/11 15:09:48;;;;;;;0.82;0.25;;;;;;;;;;4953658;29;20567;-65
2022/04/11 15:12:18;;;;;;;0.73;0.43;;;;;;;;;;4953988;29;20051;-64
2022/04/11 15:14:49;;;;;;;0.73;0.30;;;;;;;;;;4940897;28;20055;-64
2022/04/11 15:17:20;;;;;;;16.60;6.40;;;;;;;;;;4956838;28;20050;-63
2022/04/11 15:19:50;;;;;;;10.30;5.40;;;;;;;;;;4985614;28;20043;-63
2022/04/11 15:22:27;;;;;;;2.35;1.15;;;;;;;;;;4972838;28;20078;-63